sensor_id;sensor_type;location;lat;lon;timestamp;temperature;humidity
52643;DHT22;38531;53.296;6.614;2022-11-02T00:11:25;12.60;99.90
52643;DHT22;38531;53.296;6.614;2022-11-02T00:14:23;12.50;99.90
52643;DHT22;38531;53.296;6.614;2022-11-02T00:21:24;13.50;99.90
52643;DHT22;38531;53.296;6.614;2022-11-02T00:24:27;12.60;99.90
52643;DHT22;38531;53.296;6.614;2022-11-02T00:31:18;13.60;99.90
52643;DHT22;38531;53.296;6.614;2022-11-02T00:34:42;12.60;99.90
52643;DHT22;38531;53.296;6.614;2022-11-02T00:41:49;12.50;99.90
52643;DHT22;38531;53.296;6.614;2022-11-02T00:48:31;12.20;99.90
52643;DHT22;38531;53.296;6.614;2022-11-02T00:51:35;12.10;99.90
52643;DHT22;38531;53.296;6.614;2022-11-02T00:55:05;11.90;99.90
52643;DHT22;38531;53.296;6.614;2022-11-02T00:58:34;11.90;99.90
52643;DHT22;38531;53.296;6.614;2022-11-02T01:01:28;11.80;99.90
52643;DHT22;38531;53.296;6.614;2022-11-02T01:04:38;11.70;99.90
52643;DHT22;38531;53.296;6.614;2022-11-02T01:07:41;11.60;99.90
52643;DHT22;38531;53.296;6.614;2022-11-02T01:11:22;11.70;99.90
52643;DHT22;38531;53.296;6.614;2022-11-02T01:14:56;11.70;99.90
52643;DHT22;38531;53.296;6.614;2022-11-02T01:18:31;11.60;99.90
52643;DHT22;38531;53.296;6.614;2022-11-02T01:21:50;11.40;99.90
52643;DHT22;38531;53.296;6.614;2022-11-02T01:34:37;11.30;99.90
52643;DHT22;38531;53.296;6.614;2022-11-02T01:44:30;11.20;99.90
52643;DHT22;38531;53.296;6.614;2022-11-02T01:47:39;11.10;99.90
52643;DHT22;38531;53.296;6.614;2022-11-02T01:54:48;11.20;99.90
52643;DHT22;38531;53.296;6.614;2022-11-02T01:57:42;12.00;99.90
52643;DHT22;38531;53.296;6.614;2022-11-02T02:01:20;11.20;99.90
52643;DHT22;38531;53.296;6.614;2022-11-02T02:14:42;11.10;99.90
52643;DHT22;38531;53.296;6.614;2022-11-02T02:18:02;11.20;99.90
52643;DHT22;38531;53.296;6.614;2022-11-02T02:47:59;11.50;99.90
52643;DHT22;38531;53.296;6.614;2022-11-02T02:51:03;10.70;99.90
52643;DHT22;38531;53.296;6.614;2022-11-02T02:54:22;10.70;99.90
52643;DHT22;38531;53.296;6.614;2022-11-02T03:01:10;10.60;99.90
52643;DHT22;38531;53.296;6.614;2022-11-02T03:04:30;10.60;99.90
52643;DHT22;38531;53.296;6.614;2022-11-02T03:11:41;10.80;99.90
52643;DHT22;38531;53.296;6.614;2022-11-02T03:15:15;10.90;99.90
52643;DHT22;38531;53.296;6.614;2022-11-02T03:18:45;11.00;99.90
52643;DHT22;38531;53.296;6.614;2022-11-02T03:40:40;10.40;99.90
52643;DHT22;38531;53.296;6.614;2022-11-02T03:43:42;10.80;99.90
52643;DHT22;38531;53.296;6.614;2022-11-02T03:46:59;10.80;99.90
52643;DHT22;38531;53.296;6.614;2022-11-02T04:07:36;10.80;99.90
52643;DHT22;38531;53.296;6.614;2022-11-02T04:14:38;10.10;99.90
52643;DHT22;38531;53.296;6.614;2022-11-02T04:18:02;11.20;99.90
52643;DHT22;38531;53.296;6.614;2022-11-02T04:28:26;10.60;99.90
52643;DHT22;38531;53.296;6.614;2022-11-02T04:31:48;10.60;99.90
52643;DHT22;38531;53.296;6.614;2022-11-02T04:35:04;10.60;99.90
52643;DHT22;38531;53.296;6.614;2022-11-02T04:38:06;10.60;99.90
52643;DHT22;38531;53.296;6.614;2022-11-02T04:41:47;10.60;99.90
52643;DHT22;38531;53.296;6.614;2022-11-02T04:45:13;10.80;99.90
52643;DHT22;38531;53.296;6.614;2022-11-02T04:48:16;10.70;99.90
52643;DHT22;38531;53.296;6.614;2022-11-02T04:51:21;10.70;99.90
52643;DHT22;38531;53.296;6.614;2022-11-02T04:54:26;11.10;99.90
52643;DHT22;38531;53.296;6.614;2022-11-02T04:57:30;11.70;99.90
52643;DHT22;38531;53.296;6.614;2022-11-02T05:00:26;10.40;99.90
52643;DHT22;38531;53.296;6.614;2022-11-02T05:03:50;10.70;99.90
52643;DHT22;38531;53.296;6.614;2022-11-02T05:07:20;10.80;99.90
52643;DHT22;38531;53.296;6.614;2022-11-02T05:13:45;10.60;99.90
52643;DHT22;38531;53.296;6.614;2022-11-02T05:16:44;10.60;99.90
52643;DHT22;38531;53.296;6.614;2022-11-02T05:20:08;10.60;99.90
52643;DHT22;38531;53.296;6.614;2022-11-02T05:26:47;11.40;99.90
52643;DHT22;38531;53.296;6.614;2022-11-02T05:29:42;10.70;99.90
52643;DHT22;38531;53.296;6.614;2022-11-02T05:32:58;11.10;99.90
52643;DHT22;38531;53.296;6.614;2022-11-02T05:36:17;10.70;99.90
52643;DHT22;38531;53.296;6.614;2022-11-02T05:43:03;10.60;99.90
52643;DHT22;38531;53.296;6.614;2022-11-02T05:46:09;10.60;99.90
52643;DHT22;38531;53.296;6.614;2022-11-02T05:49:55;10.60;99.90
52643;DHT22;38531;53.296;6.614;2022-11-02T05:56:16;10.60;99.90
52643;DHT22;38531;53.296;6.614;2022-11-02T05:59:41;10.60;99.90
52643;DHT22;38531;53.296;6.614;2022-11-02T06:03:17;10.60;99.90
52643;DHT22;38531;53.296;6.614;2022-11-02T06:06:32;10.20;99.90
52643;DHT22;38531;53.296;6.614;2022-11-02T06:10:06;10.70;99.90
52643;DHT22;38531;53.296;6.614;2022-11-02T06:13:49;10.70;99.90
52643;DHT22;38531;53.296;6.614;2022-11-02T06:21:24;10.70;99.90
52643;DHT22;38531;53.296;6.614;2022-11-02T06:28:25;10.90;99.90
52643;DHT22;38531;53.296;6.614;2022-11-02T06:31:48;10.30;99.90
52643;DHT22;38531;53.296;6.614;2022-11-02T06:47:37;10.80;99.90
52643;DHT22;38531;53.296;6.614;2022-11-02T06:50:32;10.70;99.90
52643;DHT22;38531;53.296;6.614;2022-11-02T06:53:26;10.70;99.90
52643;DHT22;38531;53.296;6.614;2022-11-02T07:00:16;10.70;99.90
52643;DHT22;38531;53.296;6.614;2022-11-02T07:03:40;10.60;99.90
52643;DHT22;38531;53.296;6.614;2022-11-02T07:06:46;10.60;99.90
52643;DHT22;38531;53.296;6.614;2022-11-02T07:09:26;10.70;99.90
52643;DHT22;38531;53.296;6.614;2022-11-02T07:12:31;10.90;99.90
52643;DHT22;38531;53.296;6.614;2022-11-02T07:15:32;10.70;99.90
52643;DHT22;38531;53.296;6.614;2022-11-02T07:18:42;11.00;99.90
52643;DHT22;38531;53.296;6.614;2022-11-02T07:21:48;10.70;99.90
52643;DHT22;38531;53.296;6.614;2022-11-02T07:24:48;10.70;99.90
52643;DHT22;38531;53.296;6.614;2022-11-02T07:27:55;10.40;99.90
52643;DHT22;38531;53.296;6.614;2022-11-02T07:31:39;10.80;99.90
52643;DHT22;38531;53.296;6.614;2022-11-02T07:34:38;10.70;99.90
52643;DHT22;38531;53.296;6.614;2022-11-02T07:37:38;10.70;99.90
52643;DHT22;38531;53.296;6.614;2022-11-02T07:40:50;10.60;99.90
52643;DHT22;38531;53.296;6.614;2022-11-02T07:46:44;10.70;99.90
52643;DHT22;38531;53.296;6.614;2022-11-02T07:50:00;10.70;99.90
52643;DHT22;38531;53.296;6.614;2022-11-02T07:53:11;10.70;99.90
52643;DHT22;38531;53.296;6.614;2022-11-02T07:58:56;10.60;99.90
52643;DHT22;38531;53.296;6.614;2022-11-02T08:08:15;10.70;99.90
52643;DHT22;38531;53.296;6.614;2022-11-02T08:11:25;10.80;99.90
52643;DHT22;38531;53.296;6.614;2022-11-02T08:14:15;10.90;99.90
52643;DHT22;38531;53.296;6.614;2022-11-02T08:17:10;11.00;99.90
52643;DHT22;38531;53.296;6.614;2022-11-02T08:20:18;11.20;99.90
52643;DHT22;38531;53.296;6.614;2022-11-02T08:22:56;11.30;99.90
52643;DHT22;38531;53.296;6.614;2022-11-02T08:26:22;11.40;99.90
52643;DHT22;38531;53.296;6.614;2022-11-02T08:32:34;11.60;99.90
52643;DHT22;38531;53.296;6.614;2022-11-02T08:35:25;11.60;99.90
52643;DHT22;38531;53.296;6.614;2022-11-02T08:41:40;11.60;99.90
52643;DHT22;38531;53.296;6.614;2022-11-02T08:48:31;11.70;99.90
52643;DHT22;38531;53.296;6.614;2022-11-02T08:51:23;11.70;99.90
52643;DHT22;38531;53.296;6.614;2022-11-02T08:54:28;11.90;99.90
52643;DHT22;38531;53.296;6.614;2022-11-02T08:57:53;12.00;99.90
52643;DHT22;38531;53.296;6.614;2022-11-02T09:00:48;12.00;99.90
52643;DHT22;38531;53.296;6.614;2022-11-02T09:04:04;12.20;99.90
52643;DHT22;38531;53.296;6.614;2022-11-02T09:10:28;12.40;99.90
52643;DHT22;38531;53.296;6.614;2022-11-02T09:13:05;12.50;99.90
52643;DHT22;38531;53.296;6.614;2022-11-02T09:15:33;12.50;99.90
52643;DHT22;38531;53.296;6.614;2022-11-02T09:18:05;12.40;99.90
52643;DHT22;38531;53.296;6.614;2022-11-02T09:20:33;12.40;99.90
52643;DHT22;38531;53.296;6.614;2022-11-02T09:23:04;12.50;99.90
52643;DHT22;38531;53.296;6.614;2022-11-02T09:25:39;12.40;99.90
52643;DHT22;38531;53.296;6.614;2022-11-02T09:28:06;12.50;99.90
52643;DHT22;38531;53.296;6.614;2022-11-02T09:30:35;12.50;99.90
52643;DHT22;38531;53.296;6.614;2022-11-02T09:33:03;12.60;99.90
52643;DHT22;38531;53.296;6.614;2022-11-02T09:35:33;12.50;99.90
52643;DHT22;38531;53.296;6.614;2022-11-02T09:38:09;12.50;99.90
52643;DHT22;38531;53.296;6.614;2022-11-02T09:45:04;12.50;99.90
52643;DHT22;38531;53.296;6.614;2022-11-02T09:48:04;12.60;99.90
52643;DHT22;38531;53.296;6.614;2022-11-02T09:51:22;12.90;99.90
52643;DHT22;38531;53.296;6.614;2022-11-02T09:54:51;12.70;99.90
52643;DHT22;38531;53.296;6.614;2022-11-02T09:58:05;12.70;99.90
52643;DHT22;38531;53.296;6.614;2022-11-02T10:04:48;12.60;99.90
52643;DHT22;38531;53.296;6.614;2022-11-02T10:14:32;13.00;99.90
52643;DHT22;38531;53.296;6.614;2022-11-02T10:17:37;13.20;99.90
52643;DHT22;38531;53.296;6.614;2022-11-02T10:20:40;14.20;99.90
52643;DHT22;38531;53.296;6.614;2022-11-02T10:24:11;13.40;99.90
52643;DHT22;38531;53.296;6.614;2022-11-02T10:30:41;13.40;99.90
52643;DHT22;38531;53.296;6.614;2022-11-02T10:33:35;13.30;99.90
52643;DHT22;38531;53.296;6.614;2022-11-02T10:53:07;13.90;99.90
52643;DHT22;38531;53.296;6.614;2022-11-02T10:56:18;14.00;99.90
52643;DHT22;38531;53.296;6.614;2022-11-02T10:59:31;14.00;99.90
52643;DHT22;38531;53.296;6.614;2022-11-02T11:05:21;14.00;99.90
52643;DHT22;38531;53.296;6.614;2022-11-02T11:08:02;14.00;99.90
52643;DHT22;38531;53.296;6.614;2022-11-02T11:14:27;13.90;99.90
52643;DHT22;38531;53.296;6.614;2022-11-02T11:17:27;14.00;99.90
52643;DHT22;38531;53.296;6.614;2022-11-02T11:20:36;13.90;99.90
52643;DHT22;38531;53.296;6.614;2022-11-02T11:23:25;14.00;99.90
52643;DHT22;38531;53.296;6.614;2022-11-02T11:30:22;13.90;99.90
52643;DHT22;38531;53.296;6.614;2022-11-02T11:33:21;13.70;99.90
52643;DHT22;38531;53.296;6.614;2022-11-02T11:36:39;13.70;99.90
52643;DHT22;38531;53.296;6.614;2022-11-02T11:42:56;13.40;99.90
52643;DHT22;38531;53.296;6.614;2022-11-02T11:46:05;13.40;99.90
52643;DHT22;38531;53.296;6.614;2022-11-02T11:52:41;13.30;99.90
52643;DHT22;38531;53.296;6.614;2022-11-02T11:55:51;13.30;99.90
52643;DHT22;38531;53.296;6.614;2022-11-02T11:59:01;13.20;99.90
52643;DHT22;38531;53.296;6.614;2022-11-02T12:05:17;13.30;99.90
52643;DHT22;38531;53.296;6.614;2022-11-02T12:15:49;13.60;99.90
52643;DHT22;38531;53.296;6.614;2022-11-02T12:44:59;14.60;99.90
52643;DHT22;38531;53.296;6.614;2022-11-02T12:48:08;14.70;99.90
52643;DHT22;38531;53.296;6.614;2022-11-02T12:51:12;14.70;99.90
52643;DHT22;38531;53.296;6.614;2022-11-02T12:54:29;14.70;99.90
52643;DHT22;38531;53.296;6.614;2022-11-02T13:00:55;14.80;99.90
52643;DHT22;38531;53.296;6.614;2022-11-02T13:04:22;14.80;99.90
52643;DHT22;38531;53.296;6.614;2022-11-02T13:07:32;14.90;99.90
52643;DHT22;38531;53.296;6.614;2022-11-02T13:10:44;14.90;99.90
52643;DHT22;38531;53.296;6.614;2022-11-02T13:14:29;14.80;99.90
52643;DHT22;38531;53.296;6.614;2022-11-02T13:17:51;14.80;99.90
52643;DHT22;38531;53.296;6.614;2022-11-02T13:20:54;14.70;99.90
52643;DHT22;38531;53.296;6.614;2022-11-02T13:26:51;14.70;99.90
52643;DHT22;38531;53.296;6.614;2022-11-02T13:29:50;14.60;99.90
52643;DHT22;38531;53.296;6.614;2022-11-02T13:33:03;14.60;99.90
52643;DHT22;38531;53.296;6.614;2022-11-02T13:35:56;14.30;99.90
52643;DHT22;38531;53.296;6.614;2022-11-02T13:45:17;14.20;99.90
52643;DHT22;38531;53.296;6.614;2022-11-02T13:52:07;14.30;99.90
52643;DHT22;38531;53.296;6.614;2022-11-02T13:55:05;14.40;99.90
52643;DHT22;38531;53.296;6.614;2022-11-02T13:58:19;14.30;99.90
52643;DHT22;38531;53.296;6.614;2022-11-02T14:01:20;14.30;99.90
52643;DHT22;38531;53.296;6.614;2022-11-02T14:04:38;14.20;99.90
52643;DHT22;38531;53.296;6.614;2022-11-02T14:07:57;14.20;99.90
52643;DHT22;38531;53.296;6.614;2022-11-02T14:19:56;13.90;99.90
52643;DHT22;38531;53.296;6.614;2022-11-02T14:22:40;13.90;99.90
52643;DHT22;38531;53.296;6.614;2022-11-02T14:32:27;13.80;99.90
52643;DHT22;38531;53.296;6.614;2022-11-02T14:35:44;13.70;99.90
52643;DHT22;38531;53.296;6.614;2022-11-02T14:39:02;13.70;99.90
52643;DHT22;38531;53.296;6.614;2022-11-02T14:42:11;13.60;99.90
52643;DHT22;38531;53.296;6.614;2022-11-02T14:45:07;13.50;99.90
52643;DHT22;38531;53.296;6.614;2022-11-02T14:48:26;13.60;99.90
52643;DHT22;38531;53.296;6.614;2022-11-02T14:51:37;13.50;99.90
52643;DHT22;38531;53.296;6.614;2022-11-02T14:54:45;13.50;99.90
52643;DHT22;38531;53.296;6.614;2022-11-02T14:57:56;13.50;99.90
52643;DHT22;38531;53.296;6.614;2022-11-02T15:00:56;12.80;99.90
52643;DHT22;38531;53.296;6.614;2022-11-02T15:03:55;13.30;99.90
52643;DHT22;38531;53.296;6.614;2022-11-02T15:07:05;13.30;99.90
52643;DHT22;38531;53.296;6.614;2022-11-02T15:19:39;13.10;99.90
52643;DHT22;38531;53.296;6.614;2022-11-02T15:22:46;13.00;99.90
52643;DHT22;38531;53.296;6.614;2022-11-02T15:25:56;12.90;99.90
52643;DHT22;38531;53.296;6.614;2022-11-02T15:28:40;12.90;99.90
52643;DHT22;38531;53.296;6.614;2022-11-02T15:31:17;12.90;99.90
52643;DHT22;38531;53.296;6.614;2022-11-02T15:34:05;12.80;99.90
52643;DHT22;38531;53.296;6.614;2022-11-02T15:37:38;12.70;99.90
52643;DHT22;38531;53.296;6.614;2022-11-02T15:50:14;12.20;99.90
52643;DHT22;38531;53.296;6.614;2022-11-02T16:00:17;12.20;99.90
52643;DHT22;38531;53.296;6.614;2022-11-02T16:03:15;12.00;99.90
52643;DHT22;38531;53.296;6.614;2022-11-02T16:06:11;12.00;99.90
52643;DHT22;38531;53.296;6.614;2022-11-02T16:13:05;12.20;99.90
52643;DHT22;38531;53.296;6.614;2022-11-02T16:15:39;11.90;99.90
52643;DHT22;38531;53.296;6.614;2022-11-02T16:18:51;11.90;99.90
52643;DHT22;38531;53.296;6.614;2022-11-02T16:21:56;11.20;99.90
52643;DHT22;38531;53.296;6.614;2022-11-02T16:25:07;12.70;99.90
52643;DHT22;38531;53.296;6.614;2022-11-02T16:28:41;11.80;99.90
52643;DHT22;38531;53.296;6.614;2022-11-02T16:31:25;11.90;99.90
52643;DHT22;38531;53.296;6.614;2022-11-02T16:35:01;11.80;99.90
52643;DHT22;38531;53.296;6.614;2022-11-02T16:38:16;11.70;99.90
52643;DHT22;38531;53.296;6.614;2022-11-02T16:41:36;12.20;99.90
52643;DHT22;38531;53.296;6.614;2022-11-02T16:48:34;11.60;99.90
52643;DHT22;38531;53.296;6.614;2022-11-02T16:52:05;11.50;99.90
52643;DHT22;38531;53.296;6.614;2022-11-02T16:55:42;11.80;99.90
52643;DHT22;38531;53.296;6.614;2022-11-02T16:58:19;11.40;99.90
52643;DHT22;38531;53.296;6.614;2022-11-02T17:01:22;11.40;99.90
52643;DHT22;38531;53.296;6.614;2022-11-02T17:04:23;11.30;99.90
52643;DHT22;38531;53.296;6.614;2022-11-02T17:09:41;11.20;99.90
52643;DHT22;38531;53.296;6.614;2022-11-02T17:12:24;11.20;99.90
52643;DHT22;38531;53.296;6.614;2022-11-02T17:15:22;11.10;99.90
52643;DHT22;38531;53.296;6.614;2022-11-02T17:24:42;11.00;99.90
52643;DHT22;38531;53.296;6.614;2022-11-02T17:28:02;10.90;99.90
52643;DHT22;38531;53.296;6.614;2022-11-02T17:31:38;10.90;99.90
52643;DHT22;38531;53.296;6.614;2022-11-02T17:45:41;10.70;99.90
52643;DHT22;38531;53.296;6.614;2022-11-02T17:49:02;10.60;99.90
52643;DHT22;38531;53.296;6.614;2022-11-02T17:52:26;11.10;99.90
52643;DHT22;38531;53.296;6.614;2022-11-02T17:59:17;9.70;99.90
52643;DHT22;38531;53.296;6.614;2022-11-02T18:01:51;10.30;99.90
52643;DHT22;38531;53.296;6.614;2022-11-02T18:09:14;10.20;99.90
52643;DHT22;38531;53.296;6.614;2022-11-02T18:20:00;10.10;99.90
52643;DHT22;38531;53.296;6.614;2022-11-02T18:23:16;9.70;99.90
52643;DHT22;38531;53.296;6.614;2022-11-02T18:30:09;10.40;99.90
52643;DHT22;38531;53.296;6.614;2022-11-02T18:33:48;10.10;99.90
52643;DHT22;38531;53.296;6.614;2022-11-02T18:37:14;10.00;99.90
52643;DHT22;38531;53.296;6.614;2022-11-02T18:39:58;10.00;99.90
52643;DHT22;38531;53.296;6.614;2022-11-02T18:54:33;10.10;99.90
52643;DHT22;38531;53.296;6.614;2022-11-02T19:01:57;9.90;99.90
52643;DHT22;38531;53.296;6.614;2022-11-02T19:05:41;10.00;99.90
52643;DHT22;38531;53.296;6.614;2022-11-02T19:23:53;10.10;99.90
52643;DHT22;38531;53.296;6.614;2022-11-02T19:35:12;10.30;99.90
52643;DHT22;38531;53.296;6.614;2022-11-02T19:42:19;10.30;99.90
52643;DHT22;38531;53.296;6.614;2022-11-02T19:49:27;10.40;99.90
52643;DHT22;38531;53.296;6.614;2022-11-02T19:52:54;10.40;99.90
52643;DHT22;38531;53.296;6.614;2022-11-02T20:11:56;10.60;99.90
52643;DHT22;38531;53.296;6.614;2022-11-02T20:15:01;10.50;99.90
52643;DHT22;38531;53.296;6.614;2022-11-02T20:17:57;10.60;99.90
52643;DHT22;38531;53.296;6.614;2022-11-02T20:20:44;10.60;99.90
52643;DHT22;38531;53.296;6.614;2022-11-02T20:23:33;10.70;99.90
52643;DHT22;38531;53.296;6.614;2022-11-02T20:26:05;10.70;99.90
52643;DHT22;38531;53.296;6.614;2022-11-02T20:33:08;10.70;99.90
52643;DHT22;38531;53.296;6.614;2022-11-02T20:36:06;10.80;99.90
52643;DHT22;38531;53.296;6.614;2022-11-02T20:42:18;10.80;99.90
52643;DHT22;38531;53.296;6.614;2022-11-02T20:45:58;10.80;99.90
52643;DHT22;38531;53.296;6.614;2022-11-02T20:49:25;10.80;99.90
52643;DHT22;38531;53.296;6.614;2022-11-02T20:52:31;11.00;99.90
52643;DHT22;38531;53.296;6.614;2022-11-02T20:56:08;10.80;99.90
52643;DHT22;38531;53.296;6.614;2022-11-02T20:59:30;10.80;99.90
52643;DHT22;38531;53.296;6.614;2022-11-02T21:06:22;10.80;99.90
52643;DHT22;38531;53.296;6.614;2022-11-02T21:09:12;10.80;99.90
52643;DHT22;38531;53.296;6.614;2022-11-02T21:12:29;10.80;99.90
52643;DHT22;38531;53.296;6.614;2022-11-02T21:19:34;10.80;99.90
52643;DHT22;38531;53.296;6.614;2022-11-02T21:40:08;10.70;99.90
52643;DHT22;38531;53.296;6.614;2022-11-02T21:43:25;10.70;99.90
52643;DHT22;38531;53.296;6.614;2022-11-02T21:46:50;10.60;99.90
52643;DHT22;38531;53.296;6.614;2022-11-02T21:50:26;10.60;99.90
52643;DHT22;38531;53.296;6.614;2022-11-02T21:53:40;10.60;99.90
52643;DHT22;38531;53.296;6.614;2022-11-02T22:00:52;10.70;99.90
52643;DHT22;38531;53.296;6.614;2022-11-02T22:04:24;10.60;99.90
52643;DHT22;38531;53.296;6.614;2022-11-02T22:07:42;10.70;99.90
52643;DHT22;38531;53.296;6.614;2022-11-02T22:11:04;10.70;99.90
52643;DHT22;38531;53.296;6.614;2022-11-02T22:14:42;10.70;99.90
52643;DHT22;38531;53.296;6.614;2022-11-02T22:21:23;10.70;99.90
52643;DHT22;38531;53.296;6.614;2022-11-02T22:24:28;11.60;99.90
52643;DHT22;38531;53.296;6.614;2022-11-02T22:27:51;10.70;99.90
52643;DHT22;38531;53.296;6.614;2022-11-02T22:30:36;10.70;99.90
52643;DHT22;38531;53.296;6.614;2022-11-02T22:33:07;10.70;99.90
52643;DHT22;38531;53.296;6.614;2022-11-02T22:39:17;10.70;99.90
52643;DHT22;38531;53.296;6.614;2022-11-02T22:49:22;10.70;99.90
52643;DHT22;38531;53.296;6.614;2022-11-02T22:52:30;10.70;99.90
52643;DHT22;38531;53.296;6.614;2022-11-02T22:55:43;10.70;99.90
52643;DHT22;38531;53.296;6.614;2022-11-02T22:58:40;10.60;99.90
52643;DHT22;38531;53.296;6.614;2022-11-02T23:02:03;10.70;99.90
52643;DHT22;38531;53.296;6.614;2022-11-02T23:05:18;10.70;99.90
52643;DHT22;38531;53.296;6.614;2022-11-02T23:08:42;10.70;99.90
52643;DHT22;38531;53.296;6.614;2022-11-02T23:11:49;10.60;99.90
52643;DHT22;38531;53.296;6.614;2022-11-02T23:15:18;10.70;99.90
52643;DHT22;38531;53.296;6.614;2022-11-02T23:22:18;10.60;99.90
52643;DHT22;38531;53.296;6.614;2022-11-02T23:25:37;10.60;99.90
52643;DHT22;38531;53.296;6.614;2022-11-02T23:35:57;10.50;99.90
52643;DHT22;38531;53.296;6.614;2022-11-02T23:39:15;10.50;99.90
52643;DHT22;38531;53.296;6.614;2022-11-02T23:42:56;10.50;99.90
52643;DHT22;38531;53.296;6.614;2022-11-02T23:46:02;10.50;99.90
52643;DHT22;38531;53.296;6.614;2022-11-02T23:52:53;10.50;99.90
52643;DHT22;38531;53.296;6.614;2022-11-02T23:56:09;10.50;99.90
52643;DHT22;38531;53.296;6.614;2022-11-02T23:59:40;10.70;99.90
